الصفحة الرئيسية
METAR-TAF:

METAR-TAF

مطار :

لونغمونت, كولورادو, الولايات المتحدة

دائرة عرض: 40-09-51N, خط طول: 105-09-49W, ارتفاع: 1541 متر

مراقبة الطقس الحالي

تاريخ ووقت الإصدار 23 دقيقة قبل الساعة 03:15UTC
ريح 5 عقدة من الشمال
درجة الحرارة 15°درجة مئوية
الرطوبة 41%
ضغط 1023 hPa
الرؤية: 16.1 كم
غيوم متفرقة على ارتفاع 12000 قدم

METAR: KLMO 230315Z AUTO 01005KT 10SM SCT120 15/02 A3022 RMK AO2 T01480015

زمن: 21:38 (03:38 UTC)


TAF: مفقودة

أرصاد الطقس والتوقعات من أكثر من 4000 مطار (تقارير الطقس للمطار METAR والتنبؤ بالطقس بالمطارTAF).

المحطات المتاحة هي النقط الصفراء والحمراء على الخريطة.

حرك المؤشر فوق النقطة لمعرفة اسم المحطة.

ثم انقر لمعرفة أرصاد وتوقعات الطقس.

لتغيير الخارطة: اضغط على الأزرار الخضراء مع رمز الصليب الأسود للتكبير. على الزر الأخضر مع شرطة للتصغير، أو على الأسهم الخضراء للخرائط المجاورة.


METAR-TAF: